sensor_id;sensor_type;location;lat;lon;timestamp;pressure;altitude;pressure_sealevel;temperature;humidity
63115;BME280;49208;50.874;6.466;2023-06-19T06:03:03;100091.47;;;21.75;70.73
63115;BME280;49208;50.874;6.466;2023-06-19T06:05:29;100091.03;;;22.10;67.47
63115;BME280;49208;50.874;6.466;2023-06-19T06:07:55;100084.59;;;22.91;65.73
63115;BME280;49208;50.874;6.466;2023-06-19T06:10:21;100092.66;;;24.16;62.00
63115;BME280;49208;50.874;6.466;2023-06-19T06:12:48;100096.22;;;25.52;58.50
63115;BME280;49208;50.874;6.466;2023-06-19T06:15:13;100091.69;;;26.80;54.69
63115;BME280;49208;50.874;6.466;2023-06-19T06:17:39;100087.53;;;27.91;49.32
63115;BME280;49208;50.874;6.466;2023-06-19T06:20:04;100093.31;;;28.52;48.02
63115;BME280;49208;50.874;6.466;2023-06-19T06:22:36;100099.59;;;29.07;46.04
63115;BME280;49208;50.874;6.466;2023-06-19T06:25:02;100094.53;;;29.41;44.30
63115;BME280;49208;50.874;6.466;2023-06-19T06:27:27;100092.06;;;29.47;44.32
63115;BME280;49208;50.874;6.466;2023-06-19T06:29:53;100104.09;;;29.60;42.56
63115;BME280;49208;50.874;6.466;2023-06-19T06:32:18;100109.19;;;29.72;43.21
63115;BME280;49208;50.874;6.466;2023-06-19T06:34:44;100112.66;;;30.10;42.51
63115;BME280;49208;50.874;6.466;2023-06-19T06:37:09;100118.16;;;30.25;42.15
63115;BME280;49208;50.874;6.466;2023-06-19T06:39:34;100121.22;;;30.15;41.20
63115;BME280;49208;50.874;6.466;2023-06-19T06:42:00;100125.75;;;29.78;42.08
63115;BME280;49208;50.874;6.466;2023-06-19T06:44:26;100131.13;;;29.02;44.12
63115;BME280;49208;50.874;6.466;2023-06-19T06:46:51;100137.19;;;28.27;46.47
63115;BME280;49208;50.874;6.466;2023-06-19T06:49:17;100141.75;;;27.79;47.74
63115;BME280;49208;50.874;6.466;2023-06-19T06:51:42;100140.25;;;27.27;48.45
63115;BME280;49208;50.874;6.466;2023-06-19T06:54:08;100144.81;;;26.86;49.37
63115;BME280;49208;50.874;6.466;2023-06-19T06:56:33;100148.53;;;26.34;51.17
63115;BME280;49208;50.874;6.466;2023-06-19T06:58:58;100143.09;;;25.81;52.75
63115;BME280;49208;50.874;6.466;2023-06-19T07:01:24;100152.91;;;25.48;54.08
63115;BME280;49208;50.874;6.466;2023-06-19T07:03:49;100148.03;;;25.16;54.64
63115;BME280;49208;50.874;6.466;2023-06-19T07:06:14;100149.44;;;24.84;55.60
63115;BME280;49208;50.874;6.466;2023-06-19T07:08:40;100157.38;;;24.50;56.24
63115;BME280;49208;50.874;6.466;2023-06-19T07:11:06;100151.72;;;24.24;57.82
63115;BME280;49208;50.874;6.466;2023-06-19T07:13:32;100155.81;;;24.10;57.82
63115;BME280;49208;50.874;6.466;2023-06-19T07:15:57;100152.28;;;23.99;58.79
63115;BME280;49208;50.874;6.466;2023-06-19T07:18:24;100156.88;;;23.89;58.80
63115;BME280;49208;50.874;6.466;2023-06-19T07:20:49;100158.31;;;23.84;59.58
63115;BME280;49208;50.874;6.466;2023-06-19T07:23:15;100170.47;;;23.89;60.34
63115;BME280;49208;50.874;6.466;2023-06-19T07:25:40;100169.44;;;24.00;59.56
63115;BME280;49208;50.874;6.466;2023-06-19T07:28:06;100172.94;;;24.20;59.78
63115;BME280;49208;50.874;6.466;2023-06-19T07:30:31;100176.41;;;24.50;59.75
63115;BME280;49208;50.874;6.466;2023-06-19T07:32:58;100178.03;;;24.70;58.70
63115;BME280;49208;50.874;6.466;2023-06-19T07:35:23;100181.53;;;24.80;58.44
63115;BME280;49208;50.874;6.466;2023-06-19T07:37:48;100186.03;;;24.90;57.95
63115;BME280;49208;50.874;6.466;2023-06-19T07:40:14;100170.88;;;24.87;58.10
63115;BME280;49208;50.874;6.466;2023-06-19T07:42:39;100181.03;;;24.67;57.42
63115;BME280;49208;50.874;6.466;2023-06-19T07:45:05;100186.56;;;24.48;57.24
63115;BME280;49208;50.874;6.466;2023-06-19T07:47:31;100180.34;;;24.28;58.09
63115;BME280;49208;50.874;6.466;2023-06-19T07:49:56;100173.69;;;24.50;59.28
63115;BME280;49208;50.874;6.466;2023-06-19T07:52:21;100179.31;;;25.12;58.07
63115;BME280;49208;50.874;6.466;2023-06-19T07:54:50;100185.31;;;25.95;57.52
63115;BME280;49208;50.874;6.466;2023-06-19T07:57:15;100177.69;;;26.68;52.40
63115;BME280;49208;50.874;6.466;2023-06-19T07:59:41;100168.44;;;27.36;51.51
63115;BME280;49208;50.874;6.466;2023-06-19T08:02:06;100179.03;;;27.64;49.71
63115;BME280;49208;50.874;6.466;2023-06-19T08:04:31;100181.75;;;27.55;49.68
63115;BME280;49208;50.874;6.466;2023-06-19T08:06:57;100180.91;;;27.38;48.29
63115;BME280;49208;50.874;6.466;2023-06-19T08:09:22;100184.31;;;27.24;49.69
63115;BME280;49208;50.874;6.466;2023-06-19T08:11:48;100182.44;;;27.49;50.24
63115;BME280;49208;50.874;6.466;2023-06-19T08:14:13;100178.19;;;27.88;49.51
63115;BME280;49208;50.874;6.466;2023-06-19T08:16:38;100173.22;;;27.91;47.39
63115;BME280;49208;50.874;6.466;2023-06-19T08:19:04;100173.22;;;27.83;48.20
63115;BME280;49208;50.874;6.466;2023-06-19T08:21:29;100166.53;;;27.69;49.56
63115;BME280;49208;50.874;6.466;2023-06-19T08:23:54;100175.44;;;27.47;48.67
63115;BME280;49208;50.874;6.466;2023-06-19T08:26:20;100179.53;;;27.34;48.99
63115;BME280;49208;50.874;6.466;2023-06-19T08:28:45;100181.03;;;27.20;48.87
63115;BME280;49208;50.874;6.466;2023-06-19T08:31:10;100178.78;;;27.08;50.00
63115;BME280;49208;50.874;6.466;2023-06-19T08:33:36;100178.66;;;27.17;50.67
63115;BME280;49208;50.874;6.466;2023-06-19T08:36:01;100186.22;;;27.65;49.93
63115;BME280;49208;50.874;6.466;2023-06-19T08:38:27;100178.44;;;28.17;49.31
63115;BME280;49208;50.874;6.466;2023-06-19T08:40:53;100177.63;;;28.65;47.55
63115;BME280;49208;50.874;6.466;2023-06-19T08:43:18;100189.41;;;28.65;45.83
63115;BME280;49208;50.874;6.466;2023-06-19T08:45:54;100183.34;;;28.38;45.64
63115;BME280;49208;50.874;6.466;2023-06-19T08:48:24;100187.88;;;28.15;46.90
63115;BME280;49208;50.874;6.466;2023-06-19T08:50:49;100182.94;;;27.86;46.32
63115;BME280;49208;50.874;6.466;2023-06-19T08:53:14;100194.75;;;27.45;47.65
63115;BME280;49208;50.874;6.466;2023-06-19T08:55:40;100194.53;;;27.22;48.23
63115;BME280;49208;50.874;6.466;2023-06-19T08:58:05;100203.50;;;26.81;46.31
63115;BME280;49208;50.874;6.466;2023-06-19T09:00:30;100204.13;;;26.33;48.52
63115;BME280;49208;50.874;6.466;2023-06-19T09:03:03;100207.09;;;26.13;49.67
63115;BME280;49208;50.874;6.466;2023-06-19T09:05:29;100200.59;;;26.14;50.51
63115;BME280;49208;50.874;6.466;2023-06-19T09:07:57;100198.31;;;26.28;50.34
63115;BME280;49208;50.874;6.466;2023-06-19T09:10:23;100203.63;;;26.37;48.95
63115;BME280;49208;50.874;6.466;2023-06-19T09:15:23;100201.88;;;26.28;48.53
63115;BME280;49208;50.874;6.466;2023-06-19T09:18:11;100194.53;;;26.29;49.88
63115;BME280;49208;50.874;6.466;2023-06-19T09:20:41;100204.34;;;26.48;50.03
63115;BME280;49208;50.874;6.466;2023-06-19T09:23:10;100200.19;;;26.61;49.45
63115;BME280;49208;50.874;6.466;2023-06-19T09:28:24;100206.22;;;27.57;50.18
63115;BME280;49208;50.874;6.466;2023-06-19T09:30:58;100206.69;;;28.01;48.44
63115;BME280;49208;50.874;6.466;2023-06-19T09:33:26;100197.72;;;28.32;45.48
63115;BME280;49208;50.874;6.466;2023-06-19T09:35:53;100203.06;;;28.73;45.07
63115;BME280;49208;50.874;6.466;2023-06-19T09:38:21;100202.78;;;28.99;43.80
63115;BME280;49208;50.874;6.466;2023-06-19T09:40:50;100211.09;;;29.14;43.04
63115;BME280;49208;50.874;6.466;2023-06-19T09:43:20;100204.22;;;29.18;42.37
63115;BME280;49208;50.874;6.466;2023-06-19T09:45:49;100201.03;;;29.30;42.41
63115;BME280;49208;50.874;6.466;2023-06-19T09:48:24;100196.28;;;29.24;41.25
63115;BME280;49208;50.874;6.466;2023-06-19T09:50:54;100193.81;;;29.14;41.62
63115;BME280;49208;50.874;6.466;2023-06-19T09:53:22;100202.19;;;29.12;41.24
63115;BME280;49208;50.874;6.466;2023-06-19T09:55:49;100192.56;;;29.39;42.01
63115;BME280;49208;50.874;6.466;2023-06-19T09:58:19;100192.34;;;29.49;42.07
63115;BME280;49208;50.874;6.466;2023-06-19T10:00:46;100193.47;;;29.55;40.98
63115;BME280;49208;50.874;6.466;2023-06-19T10:03:13;100195.25;;;29.48;39.80
63115;BME280;49208;50.874;6.466;2023-06-19T10:05:39;100198.44;;;29.59;41.25
63115;BME280;49208;50.874;6.466;2023-06-19T10:08:06;100203.75;;;29.76;40.15
63115;BME280;49208;50.874;6.466;2023-06-19T10:10:31;100197.28;;;29.92;40.65
63115;BME280;49208;50.874;6.466;2023-06-19T10:12:58;100208.34;;;29.98;38.75
63115;BME280;49208;50.874;6.466;2023-06-19T10:15:28;100202.31;;;30.03;39.42
63115;BME280;49208;50.874;6.466;2023-06-19T10:18:05;100195.59;;;30.06;39.53
63115;BME280;49208;50.874;6.466;2023-06-19T10:20:35;100198.63;;;30.11;40.17
63115;BME280;49208;50.874;6.466;2023-06-19T10:25:30;100206.00;;;30.25;38.52
63115;BME280;49208;50.874;6.466;2023-06-19T10:27:57;100203.00;;;30.20;37.00
63115;BME280;49208;50.874;6.466;2023-06-19T10:30:24;100196.84;;;30.18;38.96
63115;BME280;49208;50.874;6.466;2023-06-19T10:32:50;100202.25;;;30.26;38.15
63115;BME280;49208;50.874;6.466;2023-06-19T10:35:17;100201.22;;;30.42;40.49
63115;BME280;49208;50.874;6.466;2023-06-19T10:37:43;100195.34;;;30.45;39.25
63115;BME280;49208;50.874;6.466;2023-06-19T10:40:10;100196.88;;;30.33;38.49
63115;BME280;49208;50.874;6.466;2023-06-19T10:42:42;100190.34;;;30.49;38.58
63115;BME280;49208;50.874;6.466;2023-06-19T10:45:11;100185.06;;;30.69;40.29
63115;BME280;49208;50.874;6.466;2023-06-19T10:47:38;100198.13;;;30.81;38.26
63115;BME280;49208;50.874;6.466;2023-06-19T10:50:08;100197.56;;;31.01;38.49
63115;BME280;49208;50.874;6.466;2023-06-19T10:52:34;100195.78;;;31.15;37.93
63115;BME280;49208;50.874;6.466;2023-06-19T10:54:59;100192.59;;;31.33;37.25
63115;BME280;49208;50.874;6.466;2023-06-19T10:57:30;100192.56;;;31.48;36.67
63115;BME280;49208;50.874;6.466;2023-06-19T10:59:56;100186.13;;;31.40;35.40
63115;BME280;49208;50.874;6.466;2023-06-19T11:02:23;100184.53;;;31.31;37.58
63115;BME280;49208;50.874;6.466;2023-06-19T11:04:52;100180.47;;;31.27;37.36
63115;BME280;49208;50.874;6.466;2023-06-19T11:07:18;100182.19;;;31.28;37.18
63115;BME280;49208;50.874;6.466;2023-06-19T11:09:43;100188.31;;;31.45;37.37
63115;BME280;49208;50.874;6.466;2023-06-19T11:12:08;100184.81;;;31.58;36.21
63115;BME280;49208;50.874;6.466;2023-06-19T11:14:34;100185.88;;;31.57;37.15
63115;BME280;49208;50.874;6.466;2023-06-19T11:17:07;100182.53;;;31.61;37.04
63115;BME280;49208;50.874;6.466;2023-06-19T11:19:33;100182.56;;;31.68;37.03
63115;BME280;49208;50.874;6.466;2023-06-19T11:21:59;100176.88;;;31.70;35.94
63115;BME280;49208;50.874;6.466;2023-06-19T11:24:29;100168.66;;;31.76;36.17
63115;BME280;49208;50.874;6.466;2023-06-19T11:26:55;100176.13;;;31.82;36.48
63115;BME280;49208;50.874;6.466;2023-06-19T11:29:23;100172.06;;;31.78;36.37
63115;BME280;49208;50.874;6.466;2023-06-19T11:31:51;100170.72;;;31.68;36.67
63115;BME280;49208;50.874;6.466;2023-06-19T11:34:17;100168.47;;;31.78;35.63
63115;BME280;49208;50.874;6.466;2023-06-19T11:36:43;100177.69;;;31.92;34.93
63115;BME280;49208;50.874;6.466;2023-06-19T11:39:13;100178.34;;;31.94;35.33
63115;BME280;49208;50.874;6.466;2023-06-19T11:41:39;100171.28;;;31.85;35.37
63115;BME280;49208;50.874;6.466;2023-06-19T11:44:06;100171.59;;;31.75;37.20
63115;BME280;49208;50.874;6.466;2023-06-19T11:46:32;100169.28;;;31.72;36.37
63115;BME280;49208;50.874;6.466;2023-06-19T11:49:12;100171.28;;;31.85;36.48
63115;BME280;49208;50.874;6.466;2023-06-19T11:51:38;100166.25;;;31.95;35.95
63115;BME280;49208;50.874;6.466;2023-06-19T11:54:08;100161.34;;;32.18;35.18
63115;BME280;49208;50.874;6.466;2023-06-19T11:56:35;100158.88;;;32.30;34.05
63115;BME280;49208;50.874;6.466;2023-06-19T11:59:00;100150.00;;;32.35;34.56
63115;BME280;49208;50.874;6.466;2023-06-19T12:01:26;100155.63;;;32.20;33.63
63115;BME280;49208;50.874;6.466;2023-06-19T12:03:51;100155.22;;;31.88;34.68
63115;BME280;49208;50.874;6.466;2023-06-19T12:06:17;100153.56;;;31.66;35.74
63115;BME280;49208;50.874;6.466;2023-06-19T12:08:43;100153.69;;;31.57;35.64
63115;BME280;49208;50.874;6.466;2023-06-19T12:11:09;100164.19;;;31.47;34.05
63115;BME280;49208;50.874;6.466;2023-06-19T12:13:35;100150.53;;;31.39;33.06
63115;BME280;49208;50.874;6.466;2023-06-19T12:16:01;100157.97;;;31.38;34.00
63115;BME280;49208;50.874;6.466;2023-06-19T12:18:27;100153.56;;;31.22;31.54
63115;BME280;49208;50.874;6.466;2023-06-19T12:20:52;100163.06;;;30.98;33.74
63115;BME280;49208;50.874;6.466;2023-06-19T12:23:18;100157.13;;;30.80;33.92
63115;BME280;49208;50.874;6.466;2023-06-19T12:25:44;100157.31;;;30.78;34.01
63115;BME280;49208;50.874;6.466;2023-06-19T12:28:09;100161.47;;;30.74;35.42
63115;BME280;49208;50.874;6.466;2023-06-19T12:30:36;100154.38;;;30.65;36.74
63115;BME280;49208;50.874;6.466;2023-06-19T12:33:01;100156.13;;;30.51;37.34
63115;BME280;49208;50.874;6.466;2023-06-19T12:35:29;100160.13;;;30.49;37.78
63115;BME280;49208;50.874;6.466;2023-06-19T12:37:55;100153.00;;;30.54;38.27
63115;BME280;49208;50.874;6.466;2023-06-19T12:40:20;100162.19;;;30.61;37.28
63115;BME280;49208;50.874;6.466;2023-06-19T12:42:46;100164.63;;;30.56;37.37
63115;BME280;49208;50.874;6.466;2023-06-19T12:45:11;100158.00;;;30.66;37.26
63115;BME280;49208;50.874;6.466;2023-06-19T12:47:38;100154.16;;;30.81;36.74
63115;BME280;49208;50.874;6.466;2023-06-19T12:50:03;100153.69;;;31.14;36.84
63115;BME280;49208;50.874;6.466;2023-06-19T12:52:29;100147.75;;;31.32;35.76
63115;BME280;49208;50.874;6.466;2023-06-19T12:54:56;100144.56;;;31.50;35.54
63115;BME280;49208;50.874;6.466;2023-06-19T12:57:21;100149.31;;;31.63;36.03
63115;BME280;49208;50.874;6.466;2023-06-19T12:59:46;100152.22;;;31.55;35.43
63115;BME280;49208;50.874;6.466;2023-06-19T13:02:12;100148.66;;;31.61;35.79
63115;BME280;49208;50.874;6.466;2023-06-19T13:04:37;100147.41;;;31.64;35.08
63115;BME280;49208;50.874;6.466;2023-06-19T13:07:03;100141.09;;;31.70;34.95
63115;BME280;49208;50.874;6.466;2023-06-19T13:09:29;100132.72;;;31.56;34.82
63115;BME280;49208;50.874;6.466;2023-06-19T13:11:55;100131.28;;;31.60;33.89
63115;BME280;49208;50.874;6.466;2023-06-19T13:14:20;100122.97;;;31.54;34.99
63115;BME280;49208;50.874;6.466;2023-06-19T13:16:45;100117.66;;;31.52;34.96
63115;BME280;49208;50.874;6.466;2023-06-19T13:19:11;100113.91;;;31.60;34.22
63115;BME280;49208;50.874;6.466;2023-06-19T13:21:36;100120.72;;;31.64;34.63
63115;BME280;49208;50.874;6.466;2023-06-19T13:24:02;100122.22;;;31.67;34.06
63115;BME280;49208;50.874;6.466;2023-06-19T13:26:27;100129.69;;;31.73;34.40
63115;BME280;49208;50.874;6.466;2023-06-19T13:28:53;100124.41;;;31.71;33.34
63115;BME280;49208;50.874;6.466;2023-06-19T13:31:18;100127.72;;;31.67;33.83
63115;BME280;49208;50.874;6.466;2023-06-19T13:33:43;100115.78;;;31.53;33.49
63115;BME280;49208;50.874;6.466;2023-06-19T13:36:09;100116.38;;;31.27;33.48
63115;BME280;49208;50.874;6.466;2023-06-19T13:38:34;100115.34;;;31.28;33.38
63115;BME280;49208;50.874;6.466;2023-06-19T13:41:00;100113.25;;;31.30;33.89
63115;BME280;49208;50.874;6.466;2023-06-19T13:43:25;100119.41;;;31.32;34.95
63115;BME280;49208;50.874;6.466;2023-06-19T13:45:50;100115.00;;;31.16;35.28
63115;BME280;49208;50.874;6.466;2023-06-19T13:48:16;100116.91;;;30.94;35.48
63115;BME280;49208;50.874;6.466;2023-06-19T13:50:41;100106.72;;;30.73;34.86
63115;BME280;49208;50.874;6.466;2023-06-19T13:53:06;100110.63;;;30.64;35.14
63115;BME280;49208;50.874;6.466;2023-06-19T13:55:32;100109.00;;;30.69;35.87
63115;BME280;49208;50.874;6.466;2023-06-19T13:57:57;100108.22;;;30.75;36.21
63115;BME280;49208;50.874;6.466;2023-06-19T14:00:23;100095.41;;;30.82;34.47
63115;BME280;49208;50.874;6.466;2023-06-19T14:02:48;100103.00;;;30.80;34.92
63115;BME280;49208;50.874;6.466;2023-06-19T14:05:15;100105.56;;;30.82;35.94
63115;BME280;49208;50.874;6.466;2023-06-19T14:07:41;100092.38;;;30.92;34.76
63115;BME280;49208;50.874;6.466;2023-06-19T14:10:08;100092.38;;;30.92;34.80
63115;BME280;49208;50.874;6.466;2023-06-19T14:12:33;100097.22;;;30.90;35.44
63115;BME280;49208;50.874;6.466;2023-06-19T14:14:59;100088.97;;;30.90;34.54
63115;BME280;49208;50.874;6.466;2023-06-19T14:17:24;100086.47;;;30.95;34.72
63115;BME280;49208;50.874;6.466;2023-06-19T14:19:49;100091.13;;;30.95;35.09
63115;BME280;49208;50.874;6.466;2023-06-19T14:22:18;100088.38;;;30.95;35.50
63115;BME280;49208;50.874;6.466;2023-06-19T14:24:44;100093.69;;;30.96;35.51
63115;BME280;49208;50.874;6.466;2023-06-19T14:27:09;100091.00;;;31.03;35.63
63115;BME280;49208;50.874;6.466;2023-06-19T14:29:34;100091.19;;;31.01;34.59
63115;BME280;49208;50.874;6.466;2023-06-19T14:32:00;100095.72;;;31.09;35.05
63115;BME280;49208;50.874;6.466;2023-06-19T14:34:25;100090.00;;;30.89;34.05
63115;BME280;49208;50.874;6.466;2023-06-19T14:36:51;100086.63;;;30.72;36.08
63115;BME280;49208;50.874;6.466;2023-06-19T14:39:16;100082.44;;;30.76;35.30
63115;BME280;49208;50.874;6.466;2023-06-19T14:41:42;100077.97;;;30.75;33.95
63115;BME280;49208;50.874;6.466;2023-06-19T14:44:07;100074.69;;;30.65;34.59
63115;BME280;49208;50.874;6.466;2023-06-19T14:46:33;100077.44;;;30.65;34.29
63115;BME280;49208;50.874;6.466;2023-06-19T14:49:04;100067.81;;;30.54;34.75
63115;BME280;49208;50.874;6.466;2023-06-19T14:51:29;100069.50;;;30.34;34.25
63115;BME280;49208;50.874;6.466;2023-06-19T14:53:55;100073.47;;;30.31;34.96
63115;BME280;49208;50.874;6.466;2023-06-19T14:56:20;100069.19;;;30.29;34.56
63115;BME280;49208;50.874;6.466;2023-06-19T14:58:45;100066.16;;;30.23;35.28
63115;BME280;49208;50.874;6.466;2023-06-19T15:01:11;100070.63;;;30.25;35.84
63115;BME280;49208;50.874;6.466;2023-06-19T15:03:36;100062.56;;;30.23;34.37
63115;BME280;49208;50.874;6.466;2023-06-19T15:06:03;100062.22;;;30.11;35.30
63115;BME280;49208;50.874;6.466;2023-06-19T15:08:28;100070.00;;;30.08;36.21
63115;BME280;49208;50.874;6.466;2023-06-19T15:10:54;100067.81;;;30.18;35.76
63115;BME280;49208;50.874;6.466;2023-06-19T15:13:19;100065.13;;;30.25;34.91
63115;BME280;49208;50.874;6.466;2023-06-19T15:15:45;100067.81;;;30.18;35.57
63115;BME280;49208;50.874;6.466;2023-06-19T15:18:11;100064.47;;;30.22;35.85
63115;BME280;49208;50.874;6.466;2023-06-19T15:20:36;100067.47;;;30.28;35.52
63115;BME280;49208;50.874;6.466;2023-06-19T15:23:04;100068.84;;;30.32;35.04
63115;BME280;49208;50.874;6.466;2023-06-19T15:25:30;100061.72;;;30.37;35.38
63115;BME280;49208;50.874;6.466;2023-06-19T15:27:55;100053.66;;;30.36;34.93
63115;BME280;49208;50.874;6.466;2023-06-19T15:30:20;100057.47;;;30.35;35.81
63115;BME280;49208;50.874;6.466;2023-06-19T15:32:46;100051.13;;;30.34;35.32
63115;BME280;49208;50.874;6.466;2023-06-19T15:35:11;100047.16;;;30.37;35.00
63115;BME280;49208;50.874;6.466;2023-06-19T15:37:36;100048.94;;;30.30;34.95
63115;BME280;49208;50.874;6.466;2023-06-19T15:40:02;100051.00;;;30.28;35.10
63115;BME280;49208;50.874;6.466;2023-06-19T15:42:28;100044.59;;;30.35;34.75
63115;BME280;49208;50.874;6.466;2023-06-19T15:44:53;100045.44;;;30.36;34.73
63115;BME280;49208;50.874;6.466;2023-06-19T15:47:19;100041.66;;;30.37;34.50
63115;BME280;49208;50.874;6.466;2023-06-19T15:49:44;100046.38;;;30.28;34.85
63115;BME280;49208;50.874;6.466;2023-06-19T15:52:10;100036.53;;;30.19;34.56
63115;BME280;49208;50.874;6.466;2023-06-19T15:54:35;100033.00;;;29.89;33.93
63115;BME280;49208;50.874;6.466;2023-06-19T15:57:00;100034.13;;;29.79;34.42
63115;BME280;49208;50.874;6.466;2023-06-19T15:59:26;100031.13;;;29.74;34.74
63115;BME280;49208;50.874;6.466;2023-06-19T16:01:51;100029.47;;;29.50;35.42
63115;BME280;49208;50.874;6.466;2023-06-19T16:04:16;100029.94;;;29.54;35.97
63115;BME280;49208;50.874;6.466;2023-06-19T16:06:42;100030.63;;;29.56;35.90
63115;BME280;49208;50.874;6.466;2023-06-19T16:09:09;100029.19;;;29.60;35.63
63115;BME280;49208;50.874;6.466;2023-06-19T16:11:35;100030.34;;;29.66;35.54
63115;BME280;49208;50.874;6.466;2023-06-19T16:14:00;100029.41;;;29.73;35.07
63115;BME280;49208;50.874;6.466;2023-06-19T16:16:25;100029.41;;;29.73;35.44
63115;BME280;49208;50.874;6.466;2023-06-19T16:18:51;100030.13;;;29.67;35.10
63115;BME280;49208;50.874;6.466;2023-06-19T16:21:16;100039.31;;;29.59;35.32
63115;BME280;49208;50.874;6.466;2023-06-19T16:23:42;100032.50;;;29.55;35.83
63115;BME280;49208;50.874;6.466;2023-06-19T16:26:08;100028.91;;;29.55;35.55
63115;BME280;49208;50.874;6.466;2023-06-19T16:28:33;100023.31;;;29.48;35.35
63115;BME280;49208;50.874;6.466;2023-06-19T16:30:59;100019.91;;;29.46;35.57
63115;BME280;49208;50.874;6.466;2023-06-19T16:33:24;100020.38;;;29.35;36.77
63115;BME280;49208;50.874;6.466;2023-06-19T16:35:49;100019.25;;;29.29;36.09
63115;BME280;49208;50.874;6.466;2023-06-19T16:38:15;100021.13;;;29.29;36.51
63115;BME280;49208;50.874;6.466;2023-06-19T16:40:40;100021.81;;;29.31;36.62
63115;BME280;49208;50.874;6.466;2023-06-19T16:43:05;100029.53;;;29.27;36.30
63115;BME280;49208;50.874;6.466;2023-06-19T16:45:31;100029.72;;;29.26;37.33
63115;BME280;49208;50.874;6.466;2023-06-19T16:47:57;100018.28;;;29.22;35.90
63115;BME280;49208;50.874;6.466;2023-06-19T16:50:23;100020.91;;;29.15;36.06
63115;BME280;49208;50.874;6.466;2023-06-19T16:52:48;100015.16;;;29.10;36.25
63115;BME280;49208;50.874;6.466;2023-06-19T16:55:14;100018.22;;;29.07;36.79
63115;BME280;49208;50.874;6.466;2023-06-19T16:57:39;100017.25;;;29.00;37.91
63115;BME280;49208;50.874;6.466;2023-06-19T17:00:06;100020.06;;;28.92;37.87
63115;BME280;49208;50.874;6.466;2023-06-19T17:02:32;100020.53;;;28.80;38.29
63115;BME280;49208;50.874;6.466;2023-06-19T17:04:58;100016.13;;;28.71;38.31
63115;BME280;49208;50.874;6.466;2023-06-19T17:07:23;100016.84;;;28.65;37.74
63115;BME280;49208;50.874;6.466;2023-06-19T17:09:49;100008.16;;;28.61;38.29
63115;BME280;49208;50.874;6.466;2023-06-19T17:12:14;100008.03;;;28.55;37.82
63115;BME280;49208;50.874;6.466;2023-06-19T17:14:41;100012.19;;;28.42;37.92
63115;BME280;49208;50.874;6.466;2023-06-19T17:17:07;100008.03;;;28.24;39.78
63115;BME280;49208;50.874;6.466;2023-06-19T17:19:32;100004.38;;;28.08;39.67
63115;BME280;49208;50.874;6.466;2023-06-19T17:21:58;100008.72;;;27.94;38.67
63115;BME280;49208;50.874;6.466;2023-06-19T17:24:23;100005.00;;;27.87;38.72
63115;BME280;49208;50.874;6.466;2023-06-19T17:26:48;100003.09;;;27.79;39.38
63115;BME280;49208;50.874;6.466;2023-06-19T17:29:16;100008.22;;;27.74;38.86
63115;BME280;49208;50.874;6.466;2023-06-19T17:31:42;100003.66;;;27.67;39.08
63115;BME280;49208;50.874;6.466;2023-06-19T17:34:07;100003.50;;;27.60;39.02
63115;BME280;49208;50.874;6.466;2023-06-19T17:36:32;100009.50;;;27.55;39.52
63115;BME280;49208;50.874;6.466;2023-06-19T17:38:58;100005.63;;;27.50;39.85
63115;BME280;49208;50.874;6.466;2023-06-19T17:41:23;100005.28;;;27.45;39.46
63115;BME280;49208;50.874;6.466;2023-06-19T17:43:49;100006.47;;;27.42;40.08
63115;BME280;49208;50.874;6.466;2023-06-19T17:46:15;100013.16;;;27.39;40.54
63115;BME280;49208;50.874;6.466;2023-06-19T17:48:40;100016.25;;;27.28;39.80
63115;BME280;49208;50.874;6.466;2023-06-19T17:51:06;100021.38;;;27.15;39.57
63115;BME280;49208;50.874;6.466;2023-06-19T17:53:31;100024.78;;;27.09;39.66
63115;BME280;49208;50.874;6.466;2023-06-19T17:55:58;100024.25;;;27.05;39.85
63115;BME280;49208;50.874;6.466;2023-06-19T17:58:28;100034.50;;;27.03;39.72
63115;BME280;49208;50.874;6.466;2023-06-19T18:00:54;100041.19;;;27.00;40.45
63115;BME280;49208;50.874;6.466;2023-06-19T18:03:19;100033.66;;;26.94;40.52
63115;BME280;49208;50.874;6.466;2023-06-19T18:05:44;100038.78;;;26.89;40.30
63115;BME280;49208;50.874;6.466;2023-06-19T18:08:10;100040.13;;;26.85;40.70
63115;BME280;49208;50.874;6.466;2023-06-19T18:10:35;100035.72;;;26.76;40.86
63115;BME280;49208;50.874;6.466;2023-06-19T18:13:00;100042.00;;;26.68;40.87
63115;BME280;49208;50.874;6.466;2023-06-19T18:15:27;100032.28;;;26.57;41.40
63115;BME280;49208;50.874;6.466;2023-06-19T18:17:53;100034.09;;;26.49;41.70
63115;BME280;49208;50.874;6.466;2023-06-19T18:20:18;100041.25;;;26.41;41.77
63115;BME280;49208;50.874;6.466;2023-06-19T18:22:43;100032.34;;;26.31;41.94
63115;BME280;49208;50.874;6.466;2023-06-19T18:25:09;100031.66;;;26.21;42.45
63115;BME280;49208;50.874;6.466;2023-06-19T18:27:34;100032.50;;;26.13;42.50
63115;BME280;49208;50.874;6.466;2023-06-19T18:30:00;100034.16;;;26.06;43.11
63115;BME280;49208;50.874;6.466;2023-06-19T18:32:25;100033.63;;;25.94;43.22
63115;BME280;49208;50.874;6.466;2023-06-19T18:34:50;100042.72;;;25.85;44.61
63115;BME280;49208;50.874;6.466;2023-06-19T18:37:16;100041.16;;;25.74;44.04
63115;BME280;49208;50.874;6.466;2023-06-19T18:39:41;100040.97;;;25.68;44.07
63115;BME280;49208;50.874;6.466;2023-06-19T18:42:07;100039.03;;;25.60;43.92
63115;BME280;49208;50.874;6.466;2023-06-19T18:44:32;100036.81;;;25.55;44.35
63115;BME280;49208;50.874;6.466;2023-06-19T18:46:57;100031.66;;;25.52;44.38
63115;BME280;49208;50.874;6.466;2023-06-19T18:49:23;100033.63;;;25.42;44.61
63115;BME280;49208;50.874;6.466;2023-06-19T18:51:48;100025.44;;;25.34;44.52
63115;BME280;49208;50.874;6.466;2023-06-19T18:54:13;100019.75;;;25.27;43.82